Time;durP1;ratioP1;P1;durP2;ratioP2;P2;SDS_P1;SDS_P2;PMS_P1;PMS_P2;Temp;Humidity;BMP_temperature;BMP_pressure;BME280_temperature;BME280_humidity;BME280_pressure;Samples;Min_cycle;Max_cycle;Signal;HPM_P1;HPM_P2
2022/02/16 00:01:07;;;;;;;6.47;1.60;;;;;;;;;;4994749;28;20110;-65
2022/02/16 00:03:32;;;;;;;4.50;1.57;;;;;;;;;;4995489;28;20098;-64
2022/02/16 00:05:57;;;;;;;2.70;1.20;;;;;;;;;;4993629;28;20390;-64
2022/02/16 00:08:24;;;;;;;4.53;1.67;;;;;;;;;;4992322;28;20185;-64
2022/02/16 00:10:49;;;;;;;14.40;8.65;;;;;;;;;;4993632;28;20641;-64
2022/02/16 00:13:14;;;;;;;10.97;5.60;;;;;;;;;;4995207;28;20707;-64
2022/02/16 00:15:40;;;;;;;3.90;2.00;;;;;;;;;;4995758;28;20549;-64
2022/02/16 00:18:06;;;;;;;4.30;1.92;;;;;;;;;;4993049;28;20082;-64
2022/02/16 00:20:31;;;;;;;2.55;1.50;;;;;;;;;;4992745;28;20256;-64
2022/02/16 00:22:56;;;;;;;3.47;1.63;;;;;;;;;;4996856;28;20566;-64
2022/02/16 00:25:22;;;;;;;4.63;1.70;;;;;;;;;;4993997;28;20441;-65
2022/02/16 00:27:47;;;;;;;1.80;1.07;;;;;;;;;;4996395;28;20101;-64
2022/02/16 00:30:12;;;;;;;7.63;3.33;;;;;;;;;;4996048;28;20408;-64
2022/02/16 00:32:37;;;;;;;2.45;1.95;;;;;;;;;;4999694;28;20106;-64
2022/02/16 00:35:03;;;;;;;5.70;2.93;;;;;;;;;;4994268;28;20078;-64
2022/02/16 00:37:28;;;;;;;2.88;1.23;;;;;;;;;;4992530;28;20178;-64
2022/02/16 00:39:53;;;;;;;2.03;1.13;;;;;;;;;;4985345;28;20507;-65
2022/02/16 00:42:18;;;;;;;2.00;1.00;;;;;;;;;;4991433;28;20568;-64
2022/02/16 00:44:44;;;;;;;1.97;1.27;;;;;;;;;;4986322;28;20595;-64
2022/02/16 00:47:09;;;;;;;2.90;1.70;;;;;;;;;;4991770;28;20121;-64
2022/02/16 00:49:34;;;;;;;2.47;1.10;;;;;;;;;;4995286;28;20090;-65
2022/02/16 00:51:59;;;;;;;6.30;1.58;;;;;;;;;;4993771;28;20118;-64
2022/02/16 00:54:24;;;;;;;1.27;0.87;;;;;;;;;;5000400;28;20586;-64
2022/02/16 00:56:50;;;;;;;2.77;1.23;;;;;;;;;;4990612;28;20601;-64
2022/02/16 00:59:15;;;;;;;1.95;1.05;;;;;;;;;;5004788;28;20078;-64
2022/02/16 01:01:40;;;;;;;2.10;1.10;;;;;;;;;;4986848;28;20091;-64
2022/02/16 01:04:05;;;;;;;2.97;1.47;;;;;;;;;;4997113;28;20106;-65
2022/02/16 01:06:31;;;;;;;4.07;1.33;;;;;;;;;;4999119;28;20208;-64
2022/02/16 01:08:56;;;;;;;7.30;5.60;;;;;;;;;;5000904;28;20102;-64
2022/02/16 01:11:21;;;;;;;4.30;2.33;;;;;;;;;;5004105;28;20193;-65
2022/02/16 01:13:47;;;;;;;4.43;1.98;;;;;;;;;;4998056;28;20487;-65
2022/02/16 01:16:12;;;;;;;1.42;1.02;;;;;;;;;;4997274;28;20738;-65
2022/02/16 01:18:37;;;;;;;2.97;1.10;;;;;;;;;;5001092;28;20113;-65
2022/02/16 01:21:02;;;;;;;4.03;1.40;;;;;;;;;;5004380;28;20868;-65
2022/02/16 01:23:28;;;;;;;11.43;6.03;;;;;;;;;;5000978;28;20591;-65
2022/02/16 01:25:53;;;;;;;4.70;1.83;;;;;;;;;;4992960;28;20395;-64
2022/02/16 01:28:18;;;;;;;2.53;1.03;;;;;;;;;;5000244;28;20117;-65
2022/02/16 01:30:43;;;;;;;2.17;1.23;;;;;;;;;;5011825;28;20082;-64
2022/02/16 01:33:08;;;;;;;2.53;1.07;;;;;;;;;;5000103;28;20109;-64
2022/02/16 01:35:34;;;;;;;2.53;1.33;;;;;;;;;;5000525;28;20125;-64
2022/02/16 01:37:59;;;;;;;1.90;1.10;;;;;;;;;;4994948;28;20073;-64
2022/02/16 01:40:24;;;;;;;8.27;5.10;;;;;;;;;;4989459;28;20468;-65
2022/02/16 01:42:49;;;;;;;2.13;1.00;;;;;;;;;;5001403;28;20635;-64
2022/02/16 01:45:14;;;;;;;2.57;0.70;;;;;;;;;;4987405;28;20106;-64
2022/02/16 01:47:40;;;;;;;3.30;1.00;;;;;;;;;;5010336;28;20109;-65
2022/02/16 01:50:05;;;;;;;3.33;1.23;;;;;;;;;;4989140;28;20075;-64
2022/02/16 01:52:30;;;;;;;1.63;0.90;;;;;;;;;;4998862;28;20356;-65
2022/02/16 01:54:56;;;;;;;9.13;5.53;;;;;;;;;;4997551;28;20075;-65
2022/02/16 01:57:21;;;;;;;0.82;0.82;;;;;;;;;;4995012;28;20070;-64
2022/02/16 01:59:47;;;;;;;1.90;1.17;;;;;;;;;;4991366;28;20103;-64
2022/02/16 02:02:12;;;;;;;1.55;1.00;;;;;;;;;;5000047;28;20522;-64
2022/02/16 02:04:37;;;;;;;4.37;1.40;;;;;;;;;;4999974;28;20098;-64
2022/02/16 02:07:03;;;;;;;2.70;1.33;;;;;;;;;;5005426;28;20089;-64
2022/02/16 02:09:28;;;;;;;3.22;1.50;;;;;;;;;;5000093;28;20077;-64
2022/02/16 02:11:53;;;;;;;1.00;0.90;;;;;;;;;;5002641;28;20425;-64
2022/02/16 02:14:18;;;;;;;4.43;2.83;;;;;;;;;;4999963;28;20550;-63
2022/02/16 02:16:43;;;;;;;12.07;7.87;;;;;;;;;;4997954;28;20094;-64
2022/02/16 02:19:09;;;;;;;3.03;2.37;;;;;;;;;;4999195;28;20086;-64
2022/02/16 02:21:34;;;;;;;3.35;2.40;;;;;;;;;;5001485;28;20118;-64
2022/02/16 02:23:59;;;;;;;1.00;0.60;;;;;;;;;;5000420;28;20673;-65
2022/02/16 02:26:25;;;;;;;3.90;2.40;;;;;;;;;;4997550;28;20077;-64
2022/02/16 02:28:51;;;;;;;2.78;1.65;;;;;;;;;;4995873;28;20598;-64
2022/02/16 02:31:16;;;;;;;1.88;1.10;;;;;;;;;;5001033;28;20153;-64
2022/02/16 02:33:41;;;;;;;1.07;0.77;;;;;;;;;;5001137;28;20086;-64
2022/02/16 02:36:07;;;;;;;5.80;2.27;;;;;;;;;;5001819;28;20185;-64
2022/02/16 02:38:32;;;;;;;3.28;2.13;;;;;;;;;;5001900;28;20152;-64
2022/02/16 02:40:58;;;;;;;1.17;0.73;;;;;;;;;;5002954;28;20383;-63
2022/02/16 02:43:25;;;;;;;2.28;1.20;;;;;;;;;;4991546;28;20601;-64
2022/02/16 02:45:50;;;;;;;1.75;0.80;;;;;;;;;;4990755;28;20500;-63
2022/02/16 02:48:15;;;;;;;1.67;1.00;;;;;;;;;;4996744;28;20218;-64
2022/02/16 02:50:40;;;;;;;2.43;1.43;;;;;;;;;;4997319;28;20161;-64
2022/02/16 02:53:06;;;;;;;0.87;0.70;;;;;;;;;;4990648;28;20192;-64
2022/02/16 02:55:31;;;;;;;2.27;1.00;;;;;;;;;;4988602;28;20106;-64
2022/02/16 02:57:56;;;;;;;0.90;0.60;;;;;;;;;;4997001;28;20149;-64
2022/02/16 03:00:21;;;;;;;1.20;0.93;;;;;;;;;;4996449;28;20184;-64
2022/02/16 03:02:46;;;;;;;6.23;2.50;;;;;;;;;;4990767;28;20074;-64
2022/02/16 03:05:12;;;;;;;0.77;0.60;;;;;;;;;;4998861;28;20216;-64
2022/02/16 03:07:37;;;;;;;1.20;0.65;;;;;;;;;;5001639;28;20140;-64
2022/02/16 03:10:03;;;;;;;1.08;0.80;;;;;;;;;;5003766;28;20171;-64
2022/02/16 03:12:28;;;;;;;0.50;0.50;;;;;;;;;;5000196;28;20113;-64
2022/02/16 03:14:53;;;;;;;1.43;0.93;;;;;;;;;;4993695;28;20782;-64
2022/02/16 03:17:19;;;;;;;3.90;2.40;;;;;;;;;;4993888;28;20113;-65
2022/02/16 03:19:44;;;;;;;0.98;0.82;;;;;;;;;;4992826;28;20185;-65
2022/02/16 03:22:09;;;;;;;5.88;2.30;;;;;;;;;;4990007;28;20138;-64
2022/02/16 03:24:35;;;;;;;1.13;0.73;;;;;;;;;;4994016;28;20107;-64
2022/02/16 03:27:00;;;;;;;0.57;0.57;;;;;;;;;;5002938;28;20107;-64
2022/02/16 03:29:25;;;;;;;0.70;0.43;;;;;;;;;;4991557;28;20078;-65
2022/02/16 03:31:50;;;;;;;5.77;3.20;;;;;;;;;;5009804;28;20140;-65
2022/02/16 03:34:16;;;;;;;2.77;1.90;;;;;;;;;;4992038;28;20349;-65
2022/02/16 03:36:41;;;;;;;0.82;0.70;;;;;;;;;;5003341;28;20276;-65
2022/02/16 03:39:07;;;;;;;0.87;0.50;;;;;;;;;;4989518;28;20084;-64
2022/02/16 03:41:32;;;;;;;0.63;0.55;;;;;;;;;;5003448;28;20075;-65
2022/02/16 03:43:57;;;;;;;1.77;0.80;;;;;;;;;;5002526;28;20116;-65
2022/02/16 03:46:22;;;;;;;3.33;1.77;;;;;;;;;;5006185;28;20086;-65
2022/02/16 03:48:48;;;;;;;0.63;0.57;;;;;;;;;;5002466;28;20133;-65
2022/02/16 03:51:13;;;;;;;0.73;0.60;;;;;;;;;;5003715;28;20334;-64
2022/02/16 03:53:38;;;;;;;4.95;2.75;;;;;;;;;;5002612;28;20102;-64
2022/02/16 03:56:04;;;;;;;3.13;2.00;;;;;;;;;;5002480;28;20105;-64
2022/02/16 03:58:29;;;;;;;0.73;0.50;;;;;;;;;;5003017;28;20104;-65
2022/02/16 04:00:54;;;;;;;1.33;1.17;;;;;;;;;;5014336;28;20193;-65
2022/02/16 04:03:19;;;;;;;1.30;0.70;;;;;;;;;;5002180;28;20133;-65
2022/02/16 04:05:45;;;;;;;0.83;0.60;;;;;;;;;;4996456;28;20071;-65
2022/02/16 04:08:10;;;;;;;0.73;0.73;;;;;;;;;;4995243;28;20098;-65
2022/02/16 04:10:35;;;;;;;0.97;0.60;;;;;;;;;;4996211;28;20082;-65
2022/02/16 04:13:00;;;;;;;1.52;0.80;;;;;;;;;;5005716;28;20193;-65
2022/02/16 04:15:26;;;;;;;0.60;0.60;;;;;;;;;;4997143;28;20100;-65
2022/02/16 04:17:51;;;;;;;2.17;1.40;;;;;;;;;;4994847;28;20475;-65
2022/02/16 04:20:16;;;;;;;1.25;1.02;;;;;;;;;;4994129;28;20546;-65
2022/02/16 04:22:42;;;;;;;2.27;1.17;;;;;;;;;;4998598;28;20070;-65
2022/02/16 04:25:07;;;;;;;4.32;2.85;;;;;;;;;;4994771;28;20102;-65
2022/02/16 04:27:33;;;;;;;0.63;0.63;;;;;;;;;;4996237;28;20564;-65
2022/02/16 04:29:58;;;;;;;1.33;1.00;;;;;;;;;;4997159;28;20137;-65
2022/02/16 04:32:23;;;;;;;6.93;4.20;;;;;;;;;;4995857;28;20184;-65
2022/02/16 04:34:48;;;;;;;0.60;0.60;;;;;;;;;;5006540;28;20139;-65
2022/02/16 04:37:13;;;;;;;1.63;1.40;;;;;;;;;;4995432;28;20106;-65
2022/02/16 04:39:39;;;;;;;0.60;0.60;;;;;;;;;;4993600;28;20101;-64
2022/02/16 04:42:04;;;;;;;1.87;1.40;;;;;;;;;;5011201;28;20490;-65
2022/02/16 04:44:29;;;;;;;2.40;1.70;;;;;;;;;;5003601;28;20103;-65
2022/02/16 04:46:54;;;;;;;0.50;0.50;;;;;;;;;;5007437;28;20356;-66
2022/02/16 04:49:19;;;;;;;0.70;0.70;;;;;;;;;;4994828;28;20430;-66
2022/02/16 04:51:45;;;;;;;1.23;0.87;;;;;;;;;;5011161;28;20106;-66
2022/02/16 04:54:10;;;;;;;2.57;1.07;;;;;;;;;;4997083;28;20168;-66
2022/02/16 04:56:35;;;;;;;3.10;2.30;;;;;;;;;;5003955;28;20545;-66
2022/02/16 04:59:00;;;;;;;0.77;0.67;;;;;;;;;;4999708;28;20071;-66
2022/02/16 05:01:26;;;;;;;1.00;0.65;;;;;;;;;;5003037;28;20089;-66
2022/02/16 05:03:51;;;;;;;1.50;1.13;;;;;;;;;;5001436;28;20095;-65
2022/02/16 05:06:18;;;;;;;3.43;2.60;;;;;;;;;;5009320;28;20082;-65
2022/02/16 05:08:43;;;;;;;3.33;2.17;;;;;;;;;;5005689;28;20160;-65
2022/02/16 05:11:08;;;;;;;5.07;3.27;;;;;;;;;;5008877;28;20074;-65
2022/02/16 05:13:33;;;;;;;1.00;0.90;;;;;;;;;;5001850;28;20603;-65
2022/02/16 05:15:58;;;;;;;1.35;1.25;;;;;;;;;;5001513;28;20768;-65
2022/02/16 05:18:24;;;;;;;1.17;1.07;;;;;;;;;;4999147;28;20105;-65
2022/02/16 05:20:49;;;;;;;1.10;0.77;;;;;;;;;;4998203;28;20127;-65
2022/02/16 05:23:14;;;;;;;1.60;1.37;;;;;;;;;;4999030;28;20079;-65
2022/02/16 05:25:40;;;;;;;1.07;0.97;;;;;;;;;;4995812;28;20089;-65
2022/02/16 05:28:05;;;;;;;1.10;1.10;;;;;;;;;;4998756;28;20217;-66
2022/02/16 05:30:30;;;;;;;3.60;1.73;;;;;;;;;;4992820;28;20094;-67
2022/02/16 05:32:55;;;;;;;1.57;1.47;;;;;;;;;;5001684;28;20129;-67
2022/02/16 05:35:20;;;;;;;2.73;1.87;;;;;;;;;;4989250;28;20099;-67
2022/02/16 05:37:46;;;;;;;3.10;2.30;;;;;;;;;;5001084;28;20079;-67
2022/02/16 05:40:11;;;;;;;2.00;1.60;;;;;;;;;;4996422;28;20118;-67
2022/02/16 05:42:36;;;;;;;1.58;1.30;;;;;;;;;;5013911;28;20720;-66
2022/02/16 05:45:02;;;;;;;4.15;2.78;;;;;;;;;;5006378;28;20121;-64
2022/02/16 05:47:27;;;;;;;1.10;1.00;;;;;;;;;;4992765;28;20110;-65
2022/02/16 05:49:52;;;;;;;1.10;1.10;;;;;;;;;;5008782;28;20086;-65
2022/02/16 05:52:18;;;;;;;1.20;1.20;;;;;;;;;;4995731;28;20144;-64
2022/02/16 05:54:43;;;;;;;2.33;1.67;;;;;;;;;;5005491;28;20968;-65
2022/02/16 05:57:08;;;;;;;2.47;2.20;;;;;;;;;;4995628;28;20105;-65
2022/02/16 05:59:34;;;;;;;0.90;0.90;;;;;;;;;;4999885;28;20152;-65
2022/02/16 06:02:04;;;;;;;1.52;1.38;;;;;;;;;;4998966;28;20766;-65
2022/02/16 06:04:30;;;;;;;1.30;1.17;;;;;;;;;;5011748;28;20105;-65
2022/02/16 06:06:55;;;;;;;1.27;0.98;;;;;;;;;;5005546;28;20081;-65
2022/02/16 06:09:20;;;;;;;1.63;1.53;;;;;;;;;;5008620;28;20599;-65
2022/02/16 06:11:46;;;;;;;0.50;0.50;;;;;;;;;;4999916;28;20133;-65
2022/02/16 06:14:11;;;;;;;4.00;3.00;;;;;;;;;;5009429;28;20567;-65
2022/02/16 06:16:36;;;;;;;3.20;2.07;;;;;;;;;;4987490;28;20441;-65
2022/02/16 06:19:01;;;;;;;1.40;1.07;;;;;;;;;;5003585;28;20085;-65
2022/02/16 06:21:26;;;;;;;1.93;1.43;;;;;;;;;;4991755;28;20123;-65
2022/02/16 06:23:52;;;;;;;0.60;0.60;;;;;;;;;;5009728;28;20090;-65
2022/02/16 06:26:17;;;;;;;1.60;1.10;;;;;;;;;;4998796;28;20125;-65
2022/02/16 06:28:42;;;;;;;1.80;1.00;;;;;;;;;;4996024;28;20103;-65
2022/02/16 06:31:07;;;;;;;0.97;0.90;;;;;;;;;;4999312;28;20075;-65
2022/02/16 06:33:33;;;;;;;1.37;1.23;;;;;;;;;;4996815;28;20090;-65
2022/02/16 06:35:58;;;;;;;1.67;1.55;;;;;;;;;;5003153;28;20102;-65
2022/02/16 06:38:24;;;;;;;0.90;0.90;;;;;;;;;;5002115;28;20078;-65
2022/02/16 06:40:50;;;;;;;0.70;0.70;;;;;;;;;;4990692;28;20087;-65
2022/02/16 06:43:15;;;;;;;2.47;1.88;;;;;;;;;;4999049;28;20122;-65
2022/02/16 06:45:40;;;;;;;58.08;21.40;;;;;;;;;;5000619;28;20169;-66
2022/02/16 06:48:05;;;;;;;2.10;1.83;;;;;;;;;;4992871;28;20103;-65
2022/02/16 06:50:31;;;;;;;0.80;0.80;;;;;;;;;;4994156;28;20412;-65
2022/02/16 06:52:56;;;;;;;0.97;0.97;;;;;;;;;;5002536;28;20470;-65
2022/02/16 06:55:21;;;;;;;1.10;1.00;;;;;;;;;;5011068;28;20556;-65
2022/02/16 06:57:47;;;;;;;0.88;0.88;;;;;;;;;;4993701;28;20122;-66
2022/02/16 07:00:12;;;;;;;3.40;2.43;;;;;;;;;;5003440;28;20164;-66
2022/02/16 07:02:44;;;;;;;0.98;0.60;;;;;;;;;;5009674;28;20081;-65
2022/02/16 07:05:09;;;;;;;2.03;1.17;;;;;;;;;;5000317;28;20490;-66
2022/02/16 07:07:34;;;;;;;2.10;1.63;;;;;;;;;;5002805;28;20098;-66
2022/02/16 07:09:59;;;;;;;0.57;0.57;;;;;;;;;;5002623;28;20086;-66
2022/02/16 07:12:24;;;;;;;1.60;1.17;;;;;;;;;;5002698;28;20164;-66
2022/02/16 07:14:54;;;;;;;4.03;2.30;;;;;;;;;;4989185;28;20132;-65
2022/02/16 07:17:19;;;;;;;1.38;0.88;;;;;;;;;;5001963;28;20410;-65
2022/02/16 07:19:44;;;;;;;0.77;0.70;;;;;;;;;;5002619;28;20093;-65
2022/02/16 07:22:09;;;;;;;2.50;2.03;;;;;;;;;;5002419;28;20122;-66
2022/02/16 07:24:35;;;;;;;0.40;0.40;;;;;;;;;;4999753;28;20108;-66
2022/02/16 07:27:00;;;;;;;0.93;0.83;;;;;;;;;;5002113;28;20166;-66
2022/02/16 07:29:26;;;;;;;2.83;2.13;;;;;;;;;;5001123;28;20128;-65
2022/02/16 07:31:51;;;;;;;0.40;0.40;;;;;;;;;;5002668;28;20924;-65
2022/02/16 07:34:19;;;;;;;0.83;0.83;;;;;;;;;;5001631;28;20124;-65
2022/02/16 07:36:44;;;;;;;0.50;0.50;;;;;;;;;;5010030;28;20102;-65
2022/02/16 07:39:09;;;;;;;1.27;1.17;;;;;;;;;;4995559;28;20075;-65
2022/02/16 07:41:34;;;;;;;0.63;0.60;;;;;;;;;;4993690;28;20487;-65
2022/02/16 07:44:00;;;;;;;0.40;0.40;;;;;;;;;;4998559;28;20661;-66
2022/02/16 07:46:26;;;;;;;8.23;5.27;;;;;;;;;;5008582;28;20071;-67
2022/02/16 07:48:51;;;;;;;0.50;0.50;;;;;;;;;;4995655;28;20102;-67
2022/02/16 07:51:16;;;;;;;0.40;0.40;;;;;;;;;;5002366;28;20606;-66
2022/02/16 07:53:41;;;;;;;1.20;1.10;;;;;;;;;;5001797;28;20348;-66
2022/02/16 07:56:07;;;;;;;0.40;0.40;;;;;;;;;;5000640;28;20171;-67
2022/02/16 07:58:32;;;;;;;0.40;0.40;;;;;;;;;;5005214;28;20708;-67
2022/02/16 08:00:57;;;;;;;6.65;3.45;;;;;;;;;;5005430;28;20532;-66
2022/02/16 08:03:22;;;;;;;0.50;0.50;;;;;;;;;;4997897;28;20531;-66
2022/02/16 08:05:48;;;;;;;1.03;0.80;;;;;;;;;;5002080;28;20085;-67
2022/02/16 08:08:13;;;;;;;0.70;0.70;;;;;;;;;;5005871;28;20901;-66
2022/02/16 08:10:38;;;;;;;1.03;0.70;;;;;;;;;;5001576;28;20136;-67
2022/02/16 08:13:03;;;;;;;0.40;0.40;;;;;;;;;;4998928;28;20797;-67
2022/02/16 08:15:29;;;;;;;1.17;0.90;;;;;;;;;;4997230;28;20127;-67
2022/02/16 08:17:54;;;;;;;14.00;7.70;;;;;;;;;;5005200;28;20178;-67
2022/02/16 08:20:19;;;;;;;4.03;2.58;;;;;;;;;;4993732;28;20199;-67
2022/02/16 08:22:45;;;;;;;1.30;1.20;;;;;;;;;;4985665;28;20113;-67
2022/02/16 08:25:10;;;;;;;2.33;1.83;;;;;;;;;;4999950;28;20126;-67
2022/02/16 08:27:35;;;;;;;0.77;0.70;;;;;;;;;;4997183;28;20137;-67
2022/02/16 08:30:01;;;;;;;4.27;2.57;;;;;;;;;;5000875;28;20365;-66
2022/02/16 08:32:26;;;;;;;0.22;0.22;;;;;;;;;;4996100;28;20586;-67
2022/02/16 08:34:51;;;;;;;2.20;0.57;;;;;;;;;;5005326;28;20191;-67
2022/02/16 08:37:17;;;;;;;0.40;0.40;;;;;;;;;;4991444;28;20418;-67
2022/02/16 08:39:42;;;;;;;0.43;0.40;;;;;;;;;;4987477;28;20103;-67
2022/02/16 08:42:07;;;;;;;0.73;0.70;;;;;;;;;;4982852;28;20387;-67
2022/02/16 08:44:32;;;;;;;1.17;0.90;;;;;;;;;;4994302;28;20334;-67
2022/02/16 08:46:58;;;;;;;1.60;1.37;;;;;;;;;;4994999;28;20356;-67
2022/02/16 08:49:23;;;;;;;3.53;2.47;;;;;;;;;;4992634;28;20140;-67
2022/02/16 08:51:48;;;;;;;0.87;0.50;;;;;;;;;;4996481;28;20471;-67
2022/02/16 08:54:13;;;;;;;1.60;1.07;;;;;;;;;;5001245;28;20112;-67
2022/02/16 08:56:39;;;;;;;0.40;0.40;;;;;;;;;;4992850;28;20854;-67
2022/02/16 08:59:04;;;;;;;0.20;0.20;;;;;;;;;;5005224;28;20159;-66
2022/02/16 09:01:31;;;;;;;2.30;1.65;;;;;;;;;;5001616;28;20074;-67
2022/02/16 09:03:57;;;;;;;2.90;1.65;;;;;;;;;;5009531;28;20272;-65
2022/02/16 09:06:23;;;;;;;15.73;10.32;;;;;;;;;;5000681;28;20074;-67
2022/02/16 09:08:48;;;;;;;0.83;0.70;;;;;;;;;;4996280;28;20113;-67
2022/02/16 09:11:13;;;;;;;1.23;0.40;;;;;;;;;;4997112;28;20086;-67
2022/02/16 09:13:39;;;;;;;0.60;0.60;;;;;;;;;;5000435;28;20359;-67
2022/02/16 09:16:04;;;;;;;8.70;4.97;;;;;;;;;;4996497;28;20106;-67
2022/02/16 09:18:29;;;;;;;0.52;0.52;;;;;;;;;;5007311;28;20075;-66
2022/02/16 09:20:55;;;;;;;0.40;0.40;;;;;;;;;;4997850;28;20126;-66
2022/02/16 09:23:20;;;;;;;0.43;0.20;;;;;;;;;;4993723;28;20098;-66
2022/02/16 09:25:45;;;;;;;0.50;0.50;;;;;;;;;;5001124;28;20784;-66
2022/02/16 09:28:11;;;;;;;0.53;0.40;;;;;;;;;;5000115;28;20138;-66
2022/02/16 09:30:36;;;;;;;0.30;0.30;;;;;;;;;;5002604;28;20074;-64
2022/02/16 09:33:01;;;;;;;0.30;0.30;;;;;;;;;;5000165;28;20221;-64
2022/02/16 09:35:27;;;;;;;0.87;0.70;;;;;;;;;;4994113;28;20094;-64
2022/02/16 09:37:52;;;;;;;0.20;0.20;;;;;;;;;;5001473;28;20081;-65
2022/02/16 09:40:17;;;;;;;0.17;0.17;;;;;;;;;;4999987;28;20404;-64
2022/02/16 09:42:44;;;;;;;0.63;0.30;;;;;;;;;;5007572;28;20898;-64
2022/02/16 09:45:10;;;;;;;0.20;0.10;;;;;;;;;;5003151;28;20188;-64
2022/02/16 09:47:37;;;;;;;2.10;1.27;;;;;;;;;;4999490;28;20110;-65
2022/02/16 09:50:03;;;;;;;1.48;1.38;;;;;;;;;;4996990;28;20100;-65
2022/02/16 09:52:28;;;;;;;0.20;0.20;;;;;;;;;;4996543;28;20226;-64
2022/02/16 09:54:54;;;;;;;0.47;0.47;;;;;;;;;;4995044;28;20070;-65
2022/02/16 09:57:19;;;;;;;0.60;0.60;;;;;;;;;;4999177;28;20552;-64
2022/02/16 09:59:44;;;;;;;0.52;0.40;;;;;;;;;;4995490;28;20192;-65
2022/02/16 10:02:11;;;;;;;0.35;0.35;;;;;;;;;;4992873;28;20192;-64
2022/02/16 10:04:36;;;;;;;0.43;0.22;;;;;;;;;;5001943;28;20265;-65
2022/02/16 10:07:03;;;;;;;2.47;0.43;;;;;;;;;;4997262;28;20075;-65
2022/02/16 10:09:29;;;;;;;0.80;0.30;;;;;;;;;;4996767;28;20075;-66
2022/02/16 10:11:56;;;;;;;1.45;0.30;;;;;;;;;;5004590;28;20097;-65
2022/02/16 10:14:23;;;;;;;1.65;0.68;;;;;;;;;;5001728;28;20440;-66
2022/02/16 10:16:48;;;;;;;1.35;1.23;;;;;;;;;;4993687;28;20515;-65
2022/02/16 10:19:13;;;;;;;0.53;0.10;;;;;;;;;;5008393;28;20073;-65
2022/02/16 10:21:54;;;;;;;0.55;0.55;;;;;;;;;;4992745;28;20177;-66
2022/02/16 10:24:19;;;;;;;0.20;0.20;;;;;;;;;;5003457;28;20156;-65
2022/02/16 10:26:52;;;;;;;0.20;0.20;;;;;;;;;;5008169;28;20078;-65
2022/02/16 10:29:20;;;;;;;1.00;0.50;;;;;;;;;;5005741;28;20097;-66
2022/02/16 10:31:45;;;;;;;0.40;0.40;;;;;;;;;;5004768;28;20105;-68
2022/02/16 10:34:11;;;;;;;0.50;0.50;;;;;;;;;;5003896;28;20094;-67
2022/02/16 10:36:36;;;;;;;0.40;0.40;;;;;;;;;;5001396;28;20189;-69
2022/02/16 10:39:01;;;;;;;0.47;0.47;;;;;;;;;;5002874;28;20086;-67
2022/02/16 10:41:27;;;;;;;0.20;0.15;;;;;;;;;;5009967;28;20155;-68
2022/02/16 10:43:53;;;;;;;0.55;0.30;;;;;;;;;;5003139;28;20102;-67
2022/02/16 10:46:19;;;;;;;0.45;0.35;;;;;;;;;;5003633;28;20120;-67
2022/02/16 10:48:45;;;;;;;0.65;0.50;;;;;;;;;;5010957;28;20541;-68
2022/02/16 10:51:19;;;;;;;0.40;0.40;;;;;;;;;;5006467;28;20074;-70
2022/02/16 10:53:45;;;;;;;0.55;0.55;;;;;;;;;;5008933;28;20183;-71
2022/02/16 10:56:10;;;;;;;0.50;0.50;;;;;;;;;;4993358;28;20508;-71
2022/02/16 10:58:35;;;;;;;0.50;0.50;;;;;;;;;;5002462;28;20095;-71
2022/02/16 11:01:01;;;;;;;0.37;0.37;;;;;;;;;;4996102;28;20342;-72
2022/02/16 11:03:29;;;;;;;0.32;0.28;;;;;;;;;;5010532;28;20108;-70
2022/02/16 11:05:55;;;;;;;1.38;0.45;;;;;;;;;;5018206;28;20066;-71
2022/02/16 11:08:21;;;;;;;0.28;0.20;;;;;;;;;;5000559;28;20513;-69
2022/02/16 11:10:47;;;;;;;1.17;0.73;;;;;;;;;;5000893;28;20079;-71
2022/02/16 11:13:14;;;;;;;0.30;0.30;;;;;;;;;;5000410;28;20248;-72
2022/02/16 11:15:40;;;;;;;0.40;0.40;;;;;;;;;;4994635;28;20146;-70
2022/02/16 11:18:11;;;;;;;0.30;0.30;;;;;;;;;;5003645;28;20102;-69
2022/02/16 11:20:37;;;;;;;1.95;1.30;;;;;;;;;;5009886;28;20763;-71
2022/02/16 11:23:02;;;;;;;2.60;0.93;;;;;;;;;;5002879;28;20313;-70
2022/02/16 11:25:40;;;;;;;0.30;0.30;;;;;;;;;;5009540;28;20078;-71
2022/02/16 11:28:11;;;;;;;0.20;0.20;;;;;;;;;;4992148;28;20120;-72
2022/02/16 11:30:37;;;;;;;0.40;0.35;;;;;;;;;;4993015;28;20571;-71
2022/02/16 11:33:29;;;;;;;0.50;0.50;;;;;;;;;;5004290;28;20738;-73
2022/02/16 11:35:55;;;;;;;0.82;0.80;;;;;;;;;;4989445;28;20186;-73
2022/02/16 11:38:21;;;;;;;0.40;0.40;;;;;;;;;;5007496;28;20552;-72
2022/02/16 11:40:49;;;;;;;0.60;0.60;;;;;;;;;;4990548;28;20185;-70
2022/02/16 11:43:16;;;;;;;0.57;0.57;;;;;;;;;;4991953;28;20116;-71
2022/02/16 11:45:46;;;;;;;0.80;0.52;;;;;;;;;;4992719;28;20120;-70
2022/02/16 11:48:13;;;;;;;0.50;0.50;;;;;;;;;;5002567;28;20618;-71
2022/02/16 11:50:39;;;;;;;0.88;0.50;;;;;;;;;;5002216;28;20074;-69
2022/02/16 11:53:10;;;;;;;0.40;0.40;;;;;;;;;;4982873;28;20133;-61
2022/02/16 11:55:36;;;;;;;0.77;0.77;;;;;;;;;;4994619;28;20098;-70
2022/02/16 11:58:01;;;;;;;5.43;3.15;;;;;;;;;;5001197;28;20081;-67
2022/02/16 12:00:36;;;;;;;0.67;0.63;;;;;;;;;;4989210;28;20095;-69
2022/02/16 12:03:02;;;;;;;0.68;0.68;;;;;;;;;;4990432;28;20081;-67
2022/02/16 12:05:51;;;;;;;0.47;0.47;;;;;;;;;;5007487;28;20078;-69
2022/02/16 12:08:16;;;;;;;;;;;;;;;;;;4994486;28;20136;-70
2022/02/16 12:10:42;;;;;;;0.80;0.60;;;;;;;;;;4991947;28;20001;-71
2022/02/16 12:13:08;;;;;;;0.60;0.60;;;;;;;;;;5008668;28;20110;-70
2022/02/16 12:15:33;;;;;;;0.97;0.53;;;;;;;;;;4998301;28;20516;-68
2022/02/16 12:17:58;;;;;;;0.50;0.50;;;;;;;;;;4993651;28;20081;-71
2022/02/16 12:20:24;;;;;;;0.50;0.50;;;;;;;;;;5011654;28;20510;-69
2022/02/16 12:22:49;;;;;;;0.63;0.50;;;;;;;;;;4992045;28;20086;-71
2022/02/16 12:25:15;;;;;;;0.60;0.60;;;;;;;;;;5002428;28;20301;-70
2022/02/16 12:27:43;;;;;;;0.70;0.70;;;;;;;;;;5006870;28;20145;-68
2022/02/16 12:30:09;;;;;;;0.60;0.60;;;;;;;;;;5006842;28;20174;-71
2022/02/16 12:32:34;;;;;;;0.80;0.80;;;;;;;;;;4998838;28;20188;-69
2022/02/16 12:35:03;;;;;;;0.70;0.70;;;;;;;;;;4990956;28;20066;-70
2022/02/16 12:37:29;;;;;;;1.02;0.70;;;;;;;;;;4991029;28;20166;-70
2022/02/16 12:40:00;;;;;;;0.80;0.80;;;;;;;;;;5017626;28;20189;-69
2022/02/16 12:42:32;;;;;;;1.00;0.80;;;;;;;;;;4997086;28;20202;-70
2022/02/16 12:44:58;;;;;;;0.63;0.63;;;;;;;;;;4995290;28;20110;-69
2022/02/16 12:47:23;;;;;;;0.60;0.60;;;;;;;;;;4982111;28;20545;-68
2022/02/16 12:49:48;;;;;;;0.97;0.63;;;;;;;;;;4995643;28;20556;-69
2022/02/16 12:52:15;;;;;;;0.70;0.70;;;;;;;;;;4994215;28;20813;-69
2022/02/16 12:54:40;;;;;;;1.38;0.80;;;;;;;;;;4989378;28;20129;-70
2022/02/16 12:57:07;;;;;;;0.80;0.63;;;;;;;;;;4995045;28;20095;-69
2022/02/16 12:59:36;;;;;;;0.70;0.63;;;;;;;;;;4994627;28;20102;-69
2022/02/16 13:02:13;;;;;;;1.42;0.85;;;;;;;;;;4984604;28;20102;-70
2022/02/16 13:04:38;;;;;;;0.57;0.57;;;;;;;;;;4999183;28;20102;-70
2022/02/16 13:07:03;;;;;;;0.50;0.50;;;;;;;;;;4992237;28;20487;-70
2022/02/16 13:09:29;;;;;;;1.17;0.67;;;;;;;;;;5004413;28;20086;-70
2022/02/16 13:11:55;;;;;;;0.40;0.40;;;;;;;;;;4998156;28;20104;-69
2022/02/16 13:14:21;;;;;;;0.60;0.60;;;;;;;;;;4992438;28;20266;-70
2022/02/16 13:16:50;;;;;;;1.02;0.50;;;;;;;;;;4997733;28;20542;-70
2022/02/16 13:19:15;;;;;;;;;;;;;;;;;;4999610;28;20088;-70
2022/02/16 13:21:42;;;;;;;1.48;0.95;;;;;;;;;;4993789;28;20076;-70
2022/02/16 13:24:07;;;;;;;0.50;0.50;;;;;;;;;;4992296;28;20091;-69
2022/02/16 13:26:39;;;;;;;0.60;0.60;;;;;;;;;;4997888;28;20075;-69
2022/02/16 13:29:04;;;;;;;0.68;0.68;;;;;;;;;;4998491;28;20156;-70
2022/02/16 13:31:33;;;;;;;1.55;1.23;;;;;;;;;;4993844;28;20096;-70
2022/02/16 13:33:59;;;;;;;2.38;1.23;;;;;;;;;;4992075;28;20090;-70
2022/02/16 13:36:27;;;;;;;1.33;1.25;;;;;;;;;;4994873;28;20157;-70
2022/02/16 13:39:06;;;;;;;0.70;0.70;;;;;;;;;;4997413;28;20183;-70
2022/02/16 13:41:31;;;;;;;0.80;0.80;;;;;;;;;;4995847;28;20118;-69
2022/02/16 13:43:59;;;;;;;1.10;1.10;;;;;;;;;;4998171;28;20126;-69
2022/02/16 13:46:28;;;;;;;0.85;0.85;;;;;;;;;;4995590;28;20090;-70
2022/02/16 13:49:12;;;;;;;1.77;1.00;;;;;;;;;;4991535;28;20098;-69
2022/02/16 13:51:51;;;;;;;0.80;0.80;;;;;;;;;;5004694;28;20412;-69
2022/02/16 13:54:20;;;;;;;1.67;1.02;;;;;;;;;;5005025;28;20107;-69
2022/02/16 13:56:49;;;;;;;0.70;0.70;;;;;;;;;;5004376;28;20137;-70
2022/02/16 13:59:14;;;;;;;1.48;0.77;;;;;;;;;;5004670;28;20450;-70
2022/02/16 14:01:39;;;;;;;1.10;0.90;;;;;;;;;;5004402;28;20087;-69
2022/02/16 14:04:08;;;;;;;2.43;2.00;;;;;;;;;;5004683;28;20368;-71
2022/02/16 14:06:33;;;;;;;;;;;;;;;;;;5004867;28;20698;-71
2022/02/16 14:09:01;;;;;;;1.13;1.03;;;;;;;;;;5004432;28;19992;-70
2022/02/16 14:11:27;;;;;;;0.70;0.70;;;;;;;;;;5002595;28;20551;-70
2022/02/16 14:13:52;;;;;;;0.70;0.70;;;;;;;;;;4993105;28;20204;-72
2022/02/16 14:16:17;;;;;;;0.93;0.77;;;;;;;;;;5004259;28;20645;-71
2022/02/16 14:19:22;;;;;;;4.35;2.65;;;;;;;;;;5004759;28;20147;-71
2022/02/16 14:21:28;;;;;;;1.00;0.95;;;;;;;;;;5002779;28;20128;-72
2022/02/16 14:23:54;;;;;;;0.80;0.80;;;;;;;;;;5004469;28;20090;-70
2022/02/16 14:26:19;;;;;;;0.77;0.70;;;;;;;;;;5004680;28;20614;-70
2022/02/16 14:28:44;;;;;;;1.60;0.67;;;;;;;;;;5004224;28;20098;-69
2022/02/16 14:31:09;;;;;;;0.80;0.77;;;;;;;;;;5003883;28;20062;-70
2022/02/16 14:33:35;;;;;;;0.43;0.40;;;;;;;;;;5004070;28;20110;-71
2022/02/16 14:36:00;;;;;;;0.63;0.50;;;;;;;;;;5003706;28;20196;-71